createdAt,value
2022-11-16T00:00:12.379Z,3.50
2022-11-16T00:02:42.818Z,3.50
2022-11-16T00:05:12.041Z,3.40
2022-11-16T00:07:40.852Z,3.40
2022-11-16T00:10:11.378Z,3.30
2022-11-16T00:12:40.404Z,3.40
2022-11-16T00:15:10.123Z,3.40
2022-11-16T00:17:39.261Z,3.40
2022-11-16T00:20:12.138Z,3.40
2022-11-16T00:22:40.892Z,3.40
2022-11-16T00:25:11.106Z,3.30
2022-11-16T00:27:39.772Z,3.30
2022-11-16T00:30:10.824Z,3.20
2022-11-16T00:32:39.523Z,3.20
2022-11-16T00:35:10.908Z,3.20
2022-11-16T00:37:39.590Z,3.10
2022-11-16T00:40:10.924Z,3.10
2022-11-16T00:42:39.646Z,3.00
2022-11-16T00:45:10.229Z,3.10
2022-11-16T00:47:39.688Z,3.10
2022-11-16T00:50:10.676Z,3.20
2022-11-16T00:52:39.536Z,3.20
2022-11-16T00:55:09.643Z,3.20
2022-11-16T00:57:38.772Z,3.20
2022-11-16T01:00:09.397Z,3.10
2022-11-16T01:02:38.237Z,3.20
2022-11-16T01:05:10.729Z,3.10
2022-11-16T01:07:41.419Z,3.00
2022-11-16T01:10:16.023Z,3.00
2022-11-16T01:12:45.340Z,3.10
2022-11-16T01:15:17.384Z,3.10
2022-11-16T01:17:46.873Z,3.00
2022-11-16T01:20:20.550Z,2.90
2022-11-16T01:22:49.929Z,2.90
2022-11-16T01:25:19.598Z,2.90
2022-11-16T01:27:48.383Z,3.00
2022-11-16T01:30:25.342Z,2.90
2022-11-16T01:33:07.292Z,2.90
2022-11-16T01:35:37.492Z,2.80
2022-11-16T01:38:06.480Z,2.80
2022-11-16T01:40:36.283Z,2.90
2022-11-16T01:43:13.397Z,2.80
2022-11-16T01:45:43.723Z,2.70
2022-11-16T01:48:20.923Z,2.70
2022-11-16T01:50:52.762Z,2.80
2022-11-16T01:53:22.226Z,2.80
2022-11-16T01:55:55.244Z,2.90
2022-11-16T01:58:32.936Z,2.90
2022-11-16T02:01:12.142Z,2.90
2022-11-16T02:03:47.449Z,2.90
2022-11-16T02:07:01.113Z,2.90
2022-11-16T02:09:54.261Z,2.90
2022-11-16T02:12:54.693Z,2.70
2022-11-16T02:15:37.720Z,2.80
2022-11-16T02:18:36.986Z,2.80
2022-11-16T02:21:21.801Z,2.80
2022-11-16T02:24:43.550Z,2.90
2022-11-16T02:27:48.873Z,2.80
2022-11-16T02:30:21.598Z,2.80
2022-11-16T02:32:58.099Z,2.80
2022-11-16T02:35:33.849Z,2.80
2022-11-16T02:38:14.561Z,2.70
2022-11-16T02:40:49.571Z,2.70
2022-11-16T02:43:32.085Z,2.60
2022-11-16T02:46:09.231Z,2.60
2022-11-16T02:48:44.023Z,2.70
2022-11-16T02:51:14.204Z,2.70
2022-11-16T02:54:01.463Z,2.70
2022-11-16T02:56:32.155Z,2.70
2022-11-16T02:59:01.365Z,2.60
2022-11-16T03:01:40.131Z,2.60
2022-11-16T03:04:18.262Z,2.60
2022-11-16T03:06:52.687Z,2.70
2022-11-16T03:09:28.549Z,2.70
2022-11-16T03:12:03.120Z,2.70
2022-11-16T03:14:43.069Z,2.60
2022-11-16T03:17:23.461Z,2.60
2022-11-16T03:20:04.531Z,2.60
2022-11-16T03:22:41.567Z,2.50
2022-11-16T03:25:14.066Z,2.50
2022-11-16T03:27:54.193Z,2.50
2022-11-16T03:30:27.799Z,2.40
2022-11-16T03:33:11.936Z,2.60
2022-11-16T03:35:53.666Z,2.60
2022-11-16T03:38:25.995Z,2.60
2022-11-16T03:41:02.696Z,2.40
2022-11-16T03:43:33.083Z,2.40
2022-11-16T03:46:03.364Z,2.50
2022-11-16T03:48:37.236Z,2.50
2022-11-16T03:51:12.654Z,2.50
2022-11-16T03:53:42.493Z,2.60
2022-11-16T03:56:12.897Z,2.50
2022-11-16T03:58:41.751Z,2.50
2022-11-16T04:01:10.551Z,2.50
2022-11-16T04:03:41.542Z,2.50
2022-11-16T04:06:30.251Z,2.60
2022-11-16T04:09:16.747Z,2.50
2022-11-16T04:12:03.092Z,2.50
2022-11-16T04:14:49.617Z,2.50
2022-11-16T04:17:38.245Z,2.50
2022-11-16T04:20:29.632Z,2.50
2022-11-16T04:23:22.343Z,2.60
2022-11-16T04:25:53.767Z,2.60
2022-11-16T04:28:27.607Z,2.60
2022-11-16T04:31:20.644Z,2.60
2022-11-16T04:34:27.788Z,2.60
2022-11-16T04:37:18.332Z,2.40
2022-11-16T04:39:47.284Z,2.40
2022-11-16T04:42:19.221Z,2.30
2022-11-16T04:45:08.482Z,2.30
2022-11-16T04:47:51.169Z,2.50
2022-11-16T04:50:22.892Z,2.30
2022-11-16T04:52:55.987Z,2.30
2022-11-16T04:55:25.040Z,2.40
2022-11-16T04:57:56.647Z,2.50
2022-11-16T05:00:25.527Z,2.50
2022-11-16T05:02:59.749Z,2.50
2022-11-16T05:05:30.868Z,2.60
2022-11-16T05:08:02.545Z,2.50
2022-11-16T05:10:33.691Z,2.50
2022-11-16T05:13:02.639Z,2.60
2022-11-16T05:15:31.465Z,2.60
2022-11-16T05:18:01.535Z,2.60
2022-11-16T05:20:49.168Z,2.60
2022-11-16T05:23:36.845Z,2.60
2022-11-16T05:26:11.275Z,2.60
2022-11-16T05:28:40.595Z,2.60
2022-11-16T05:31:11.710Z,2.60
2022-11-16T05:33:40.616Z,2.60
2022-11-16T05:36:11.319Z,2.60
2022-11-16T05:38:42.807Z,2.70
2022-11-16T05:41:12.101Z,2.60
2022-11-16T05:43:41.257Z,2.60
2022-11-16T05:46:17.867Z,2.60
2022-11-16T05:48:47.251Z,2.60
2022-11-16T05:51:17.020Z,2.60
2022-11-16T05:53:49.329Z,2.60
2022-11-16T05:56:22.824Z,2.60
2022-11-16T05:58:55.263Z,2.50
2022-11-16T06:01:25.826Z,2.60
2022-11-16T06:03:55.453Z,2.70
2022-11-16T06:06:24.275Z,2.60
2022-11-16T06:08:55.973Z,2.70
2022-11-16T06:11:32.741Z,2.60
2022-11-16T06:14:05.279Z,2.60
2022-11-16T06:16:37.525Z,2.70
2022-11-16T06:19:09.998Z,2.70
2022-11-16T06:21:40.106Z,2.60
2022-11-16T06:24:17.353Z,2.70
2022-11-16T06:26:48.385Z,2.70
2022-11-16T06:29:18.209Z,2.70
2022-11-16T09:34:23.716Z,4.50
2022-11-16T09:36:52.426Z,4.60
2022-11-16T09:39:36.839Z,4.60
2022-11-16T09:42:30.246Z,4.60
2022-11-16T09:45:16.480Z,4.70
2022-11-16T09:47:56.372Z,4.70
2022-11-16T09:50:52.943Z,4.70
2022-11-16T09:53:43.790Z,4.80
2022-11-16T09:56:22.128Z,4.80
2022-11-16T09:59:04.114Z,4.90
2022-11-16T10:01:40.158Z,4.90
2022-11-16T10:04:17.904Z,4.90
2022-11-16T10:06:58.308Z,5.00
2022-11-16T10:09:28.407Z,5.00
2022-11-16T10:12:18.357Z,5.10
2022-11-16T10:15:12.883Z,5.10
2022-11-16T10:18:25.289Z,5.10
2022-11-16T10:21:37.959Z,5.20
2022-11-16T10:24:40.302Z,5.20
2022-11-16T10:27:30.000Z,5.30
2022-11-16T10:30:10.302Z,5.30
2022-11-16T10:32:49.174Z,5.40
2022-11-16T10:35:25.376Z,5.40
2022-11-16T10:37:54.268Z,5.50
2022-11-16T10:40:30.512Z,5.50
2022-11-16T10:43:12.301Z,5.60
2022-11-16T10:45:46.777Z,5.60
2022-11-16T10:48:37.204Z,5.60
2022-11-16T10:51:08.738Z,5.60
2022-11-16T10:53:41.169Z,5.70
2022-11-16T10:56:28.579Z,5.70
2022-11-16T10:59:00.983Z,5.70
2022-11-16T11:01:36.430Z,5.80
2022-11-16T11:04:19.361Z,5.80
2022-11-16T11:06:52.572Z,5.80
2022-11-16T11:09:32.707Z,5.90
2022-11-16T11:12:35.006Z,5.90
2022-11-16T11:15:25.595Z,5.90
2022-11-16T11:18:20.236Z,6.00
2022-11-16T11:21:07.661Z,6.00
2022-11-16T11:23:45.473Z,6.10
2022-11-16T11:26:37.234Z,6.10
2022-11-16T11:29:24.762Z,6.10
2022-11-16T11:31:57.177Z,6.10
2022-11-16T11:34:30.379Z,6.20
2022-11-16T11:37:03.864Z,6.10
2022-11-16T11:39:36.734Z,6.20
2022-11-16T11:42:24.597Z,6.20
2022-11-16T11:45:04.809Z,6.20
2022-11-16T11:47:58.800Z,6.30
2022-11-16T11:50:42.262Z,6.30
2022-11-16T11:53:45.555Z,6.40
2022-11-16T11:56:16.200Z,6.40
2022-11-16T11:58:46.879Z,6.30
2022-11-16T12:01:59.567Z,6.40
2022-11-16T12:05:21.441Z,6.40
2022-11-16T12:08:10.578Z,6.40
2022-11-16T12:10:51.142Z,6.40
2022-11-16T12:13:44.877Z,6.40
2022-11-16T12:16:27.218Z,6.50
2022-11-16T12:19:27.961Z,6.50
2022-11-16T12:22:19.473Z,6.50
2022-11-16T12:25:10.984Z,6.50
2022-11-16T12:27:53.908Z,6.50
2022-11-16T12:30:25.421Z,6.60
2022-11-16T12:33:15.754Z,6.60
2022-11-16T12:36:02.910Z,6.60
2022-11-16T12:38:49.100Z,6.70
2022-11-16T12:42:04.665Z,6.70
2022-11-16T12:45:03.469Z,6.70
2022-11-16T12:47:49.226Z,6.70
2022-11-16T12:50:42.978Z,6.70
2022-11-16T12:53:38.174Z,6.70
2022-11-16T12:56:19.572Z,6.80
2022-11-16T12:59:23.782Z,6.80
2022-11-16T13:02:06.905Z,6.80
2022-11-16T13:04:42.889Z,6.80
2022-11-16T13:07:22.573Z,6.80
2022-11-16T13:10:17.416Z,6.80
2022-11-16T13:12:55.863Z,6.80
2022-11-16T13:15:40.253Z,6.90
2022-11-16T13:18:18.160Z,6.90
2022-11-16T13:20:57.452Z,6.90
2022-11-16T13:23:46.024Z,6.90
2022-11-16T13:26:28.588Z,6.90
2022-11-16T13:29:10.345Z,7.00
2022-11-16T13:31:50.509Z,7.00
2022-11-16T13:34:27.132Z,7.00
2022-11-16T13:36:56.282Z,7.00
2022-11-16T13:40:15.383Z,7.00
2022-11-16T13:43:16.882Z,7.00
2022-11-16T13:45:57.040Z,7.00
2022-11-16T13:48:34.720Z,7.00
2022-11-16T13:51:07.582Z,7.00
2022-11-16T13:56:51.096Z,7.00
2022-11-16T13:59:27.528Z,7.00
2022-11-16T14:02:00.913Z,7.00
2022-11-16T14:04:59.821Z,7.00
2022-11-16T14:07:43.042Z,7.10
2022-11-16T14:10:34.856Z,7.00
2022-11-16T14:13:05.041Z,7.10
2022-11-16T14:15:39.289Z,7.10
2022-11-16T14:18:37.507Z,7.10
2022-11-16T14:21:36.083Z,7.10
2022-11-16T14:24:25.238Z,7.10
2022-11-16T14:27:10.002Z,7.10
2022-11-16T14:30:01.995Z,7.10
2022-11-16T14:32:42.556Z,7.10
2022-11-16T14:35:43.071Z,7.10
2022-11-16T14:38:28.368Z,7.00
2022-11-16T14:41:00.654Z,7.00
2022-11-16T14:43:56.250Z,7.00
2022-11-16T14:46:32.329Z,7.10
2022-11-16T14:49:05.146Z,7.10
2022-11-16T14:51:42.214Z,7.10
2022-11-16T14:54:24.922Z,7.10
2022-11-16T14:56:59.143Z,7.00
2022-11-16T14:59:29.399Z,7.00
2022-11-16T15:01:59.886Z,7.00
2022-11-16T15:04:31.936Z,7.00
2022-11-16T15:07:06.414Z,7.00
2022-11-16T15:09:40.525Z,7.00
2022-11-16T15:12:35.779Z,7.00
2022-11-16T15:15:13.854Z,7.00
2022-11-16T15:17:47.299Z,7.00
2022-11-16T15:20:23.075Z,7.00
2022-11-16T15:22:56.676Z,7.00
2022-11-16T15:25:32.889Z,7.00
2022-11-16T15:28:05.436Z,7.00
2022-11-16T15:30:37.558Z,7.00
2022-11-16T15:33:17.015Z,7.00
2022-11-16T15:35:47.404Z,7.00
2022-11-16T15:38:21.604Z,7.00
2022-11-16T15:40:54.064Z,7.00
2022-11-16T15:43:27.208Z,7.00
2022-11-16T15:45:57.358Z,7.00
2022-11-16T15:48:28.536Z,7.00
2022-11-16T15:51:08.242Z,7.00
2022-11-16T15:53:41.414Z,7.00
2022-11-16T15:56:17.260Z,7.00
2022-11-16T15:58:47.648Z,7.00
2022-11-16T16:01:18.480Z,7.00
2022-11-16T16:03:57.866Z,7.00
2022-11-16T16:06:48.088Z,7.00
2022-11-16T16:09:27.165Z,7.00
2022-11-16T16:11:59.421Z,7.00
2022-11-16T16:14:31.080Z,7.00
2022-11-16T16:17:01.898Z,7.00
2022-11-16T16:19:38.568Z,7.00
2022-11-16T16:22:25.547Z,7.00
2022-11-16T16:24:54.800Z,7.00
2022-11-16T16:27:27.135Z,7.00
2022-11-16T16:29:58.489Z,7.00
2022-11-16T16:32:30.191Z,7.00
2022-11-16T16:35:01.196Z,7.00
2022-11-16T16:37:33.996Z,7.00
2022-11-16T16:40:03.184Z,7.00
2022-11-16T16:42:32.076Z,7.00
2022-11-16T16:45:02.249Z,7.00
2022-11-16T16:50:15.555Z,7.00
2022-11-16T16:52:46.306Z,7.00
2022-11-16T16:55:15.223Z,7.00
2022-11-16T16:57:43.996Z,6.90
2022-11-16T17:00:14.497Z,7.00
2022-11-16T17:02:43.152Z,7.00
2022-11-16T17:05:11.965Z,7.00
2022-11-16T17:07:40.716Z,7.00
2022-11-16T17:10:11.544Z,7.00
2022-11-16T17:12:40.590Z,7.00
2022-11-16T17:15:15.082Z,7.00
2022-11-16T17:17:47.516Z,7.00
2022-11-16T17:20:16.901Z,7.00
2022-11-16T17:22:46.089Z,7.00
2022-11-16T17:25:16.362Z,7.00
2022-11-16T17:27:45.067Z,7.10
2022-11-16T17:30:15.631Z,7.10
2022-11-16T17:32:44.342Z,7.00
2022-11-16T17:35:13.044Z,7.00
2022-11-16T17:37:41.761Z,7.00
2022-11-16T17:40:11.846Z,7.00
2022-11-16T17:42:43.206Z,6.90
2022-11-16T17:45:12.806Z,7.00
2022-11-16T17:47:41.797Z,7.00
2022-11-16T17:50:11.758Z,7.00
2022-11-16T17:52:40.812Z,7.00
2022-11-16T17:55:10.812Z,7.00
2022-11-16T17:57:39.663Z,7.00
2022-11-16T18:00:12.493Z,7.00
2022-11-16T18:02:41.203Z,6.90
2022-11-16T18:05:10.815Z,7.00
2022-11-16T18:07:41.246Z,7.00
2022-11-16T18:10:14.947Z,6.90
2022-11-16T18:12:46.683Z,6.90
2022-11-16T18:15:33.167Z,6.90
2022-11-16T18:18:05.698Z,6.90
2022-11-16T18:20:38.689Z,6.90
2022-11-16T18:23:07.479Z,6.90
2022-11-16T18:25:37.105Z,6.90
2022-11-16T18:28:06.143Z,6.90
2022-11-16T18:30:36.315Z,6.90
2022-11-16T18:33:05.380Z,6.90
2022-11-16T18:35:34.154Z,6.90
2022-11-16T18:38:03.600Z,6.90
2022-11-16T18:40:32.454Z,6.90
2022-11-16T18:43:01.168Z,6.80
2022-11-16T18:45:29.967Z,6.90
2022-11-16T18:48:00.102Z,6.90
2022-11-16T18:50:28.833Z,6.90
2022-11-16T18:52:58.660Z,6.80
2022-11-16T18:55:27.658Z,6.80
2022-11-16T18:57:56.384Z,6.90
2022-11-16T19:00:25.222Z,6.90
2022-11-16T19:02:53.968Z,6.90
2022-11-16T19:05:24.571Z,6.90
2022-11-16T19:07:53.414Z,6.80
2022-11-16T19:10:22.234Z,6.80
2022-11-16T19:12:51.422Z,6.80
2022-11-16T19:15:20.330Z,6.80
2022-11-16T19:18:14.692Z,6.80
2022-11-16T19:20:43.826Z,6.90
2022-11-16T19:23:12.848Z,6.90
2022-11-16T19:25:42.605Z,6.80
2022-11-16T19:28:11.871Z,6.90
2022-11-16T19:30:40.761Z,6.80
2022-11-16T19:33:09.557Z,6.80
2022-11-16T19:35:39.276Z,6.80
2022-11-16T19:38:09.394Z,6.80
2022-11-16T19:40:42.228Z,6.80
2022-11-16T19:43:11.494Z,6.80
2022-11-16T19:45:40.604Z,6.90
2022-11-16T19:48:09.399Z,6.90
2022-11-16T19:50:38.355Z,6.90
2022-11-16T19:53:08.579Z,6.90
2022-11-16T19:55:37.603Z,6.80
2022-11-16T19:58:06.803Z,6.80
2022-11-16T20:00:35.600Z,6.80
2022-11-16T20:03:04.604Z,6.90
2022-11-16T20:05:33.420Z,6.90
2022-11-16T20:08:02.204Z,6.90
2022-11-16T20:10:32.381Z,7.00
2022-11-16T20:13:01.124Z,6.90
2022-11-16T20:15:30.011Z,6.90
2022-11-16T20:17:58.716Z,6.90
2022-11-16T20:20:27.533Z,6.90
2022-11-16T20:22:56.257Z,6.70
2022-11-16T20:25:25.095Z,6.70
2022-11-16T20:27:55.242Z,6.70
2022-11-16T20:30:23.954Z,6.70
2022-11-16T20:32:52.726Z,6.60
2022-11-16T20:35:21.631Z,6.60
2022-11-16T20:37:50.457Z,6.60
2022-11-16T20:40:19.389Z,6.50
2022-11-16T20:42:48.933Z,6.60
2022-11-16T20:45:19.201Z,6.50
2022-11-16T20:47:47.993Z,6.60
2022-11-16T20:50:17.289Z,6.60
2022-11-16T20:52:49.932Z,6.60
2022-11-16T20:55:23.611Z,6.50
2022-11-16T20:57:52.660Z,6.50
2022-11-16T21:00:23.368Z,6.40
2022-11-16T21:02:52.080Z,6.40
2022-11-16T21:05:20.764Z,6.40
2022-11-16T21:07:49.552Z,6.30
2022-11-16T21:10:21.999Z,6.30
2022-11-16T21:13:08.453Z,6.40
2022-11-16T21:15:38.563Z,6.50
2022-11-16T21:18:07.574Z,6.40
2022-11-16T21:20:36.282Z,6.40
2022-11-16T21:23:04.990Z,6.40
2022-11-16T21:25:34.043Z,6.30
2022-11-16T21:28:02.709Z,6.40
2022-11-16T21:30:31.393Z,6.40
2022-11-16T21:33:01.487Z,6.40
2022-11-16T21:35:30.192Z,6.40
2022-11-16T21:37:58.899Z,6.40
2022-11-16T21:40:27.628Z,6.50
2022-11-16T21:42:56.377Z,6.40
2022-11-16T21:45:25.148Z,6.30
2022-11-16T21:47:53.893Z,6.40
2022-11-16T21:50:31.529Z,6.40
2022-11-16T21:53:01.525Z,6.30
2022-11-16T21:55:30.261Z,6.30
2022-11-16T21:57:59.282Z,6.30
2022-11-16T22:00:29.042Z,6.30
2022-11-16T22:02:57.856Z,6.30
2022-11-16T22:05:45.381Z,6.40
2022-11-16T22:08:14.146Z,6.40
2022-11-16T22:10:43.338Z,6.30
2022-11-16T22:13:12.072Z,6.40
2022-11-16T22:15:40.752Z,6.30
2022-11-16T22:18:09.493Z,6.40
2022-11-16T22:20:39.647Z,6.40
2022-11-16T22:23:08.399Z,6.40
2022-11-16T22:25:38.549Z,6.50
2022-11-16T22:28:20.737Z,6.50
2022-11-16T22:30:52.069Z,6.50
2022-11-16T22:33:21.519Z,6.40
2022-11-16T22:35:51.663Z,6.30
2022-11-16T22:38:20.387Z,6.30
2022-11-16T22:40:53.684Z,6.30
2022-11-16T22:43:24.746Z,6.20
2022-11-16T22:45:57.540Z,6.20
2022-11-16T22:48:31.782Z,6.20
2022-11-16T22:51:07.857Z,6.30
2022-11-16T22:53:36.917Z,6.20
2022-11-16T22:56:08.393Z,6.20
2022-11-16T22:58:38.349Z,6.20
2022-11-16T23:01:09.532Z,6.30
2022-11-16T23:03:39.205Z,6.30
2022-11-16T23:06:09.861Z,6.40
2022-11-16T23:08:40.089Z,6.40
2022-11-16T23:11:30.269Z,6.40
2022-11-16T23:14:17.073Z,6.40
2022-11-16T23:16:46.944Z,6.30
2022-11-16T23:19:37.608Z,6.20
2022-11-16T23:22:26.298Z,6.10
2022-11-16T23:25:12.566Z,6.10
2022-11-16T23:27:45.841Z,6.20
2022-11-16T23:30:14.958Z,6.20
2022-11-16T23:32:44.111Z,6.20
2022-11-16T23:35:13.801Z,6.20
2022-11-16T23:37:55.919Z,6.20
2022-11-16T23:40:27.881Z,6.10
2022-11-16T23:43:15.418Z,6.10
2022-11-16T23:45:46.130Z,6.10
2022-11-16T23:48:17.137Z,6.10
2022-11-16T23:50:47.725Z,6.20
2022-11-16T23:53:17.959Z,6.10
2022-11-16T23:55:47.611Z,6.10
2022-11-16T23:58:16.821Z,6.10
